HISTORICAL SENSOR DATA

Sensor Data Report

DB LIVE
CURRENT TIME--:--:--
DEVICE NETWORK Gateway Status
13 ESP · realtime ~1s · history 60s
Weather WS-MOD-01
ONLINE
Actuator ACT-MOD-01
OFFLINE
Mainboard L3 MB-L3-01
ONLINE
Mainboard L5 MB-L5-01
ONLINE
Remote AC AC-REMOTE-01
ONLINE
PZEM L3-01 PWR-L3-01
OFFLINE
PZEM L3-02 PWR-L3-02
OFFLINE
PZEM L3-03 PWR-L3-03
OFFLINE
PZEM L3-04 PWR-L3-04
OFFLINE
PZEM L5-01 PWR-L5-01
ONLINE
PZEM L5-02 PWR-L5-02
ONLINE
PZEM L5-03 PWR-L5-03
OFFLINE
PZEM L5-04 PWR-L5-04
OFFLINE
REPORT FILTER

Periode & Sensor

DATABASE HISTORY
RESET
QUICK RANGE Hari ini 7 hari 30 hari
PERIODE31 Aug 2026sampai 06 Sep 2026
TOTAL DATA67,817sensor readings
MINIMUM-0.50sesuai filter
AVERAGE84.86sesuai filter
MAXIMUM32,564.20sesuai filter
REPORT RESULT

Data Sensor

31/08/2026 — 06/09/2026 EXPORT CSV
NOTANGGALWAKTUDEVICECHANNELSENSORVALUEUNIT
3601 06/09/2026 23:06:00 MB-L3-01Mainboard Lantai 3 L3-LUX-05 Illuminance / LUX 5 0.30 lux
3602 06/09/2026 23:06:00 MB-L5-01Mainboard Lantai 5 L5-RAD-02 Radiation 2 1.00 W/m²
3603 06/09/2026 23:06:00 MB-L5-01Mainboard Lantai 5 L5-HFT-01 Heat Flow Temperature 1 24.70 °C
3604 06/09/2026 23:06:00 MB-L5-01Mainboard Lantai 5 L5-LUX-04 Illuminance / LUX 4 0.10 lux
3605 06/09/2026 23:06:00 WS-MOD-01Weather Station Module WS-RH Kelembapan Udara 75.10 %RH
3606 06/09/2026 23:06:00 MB-L5-01Mainboard Lantai 5 L5-RAD-01 Radiation 1 1.00 W/m²
3607 06/09/2026 23:06:00 MB-L5-01Mainboard Lantai 5 L5-AI-01 Analog Input 1 3.05 V
3608 06/09/2026 23:06:00 MB-L5-01Mainboard Lantai 5 L5-LUX-02 Illuminance / LUX 2 0.10 lux
3609 06/09/2026 23:06:00 PWR-L5-01Power Meter L5 PZEM 01 PZEM-L5-01-FREQ PZEM L5-01 Frequency 50.00 Hz
3610 06/09/2026 23:06:00 PWR-L5-02Power Meter L5 PZEM 02 PZEM-L5-02-ENERGY PZEM L5-02 Energy 0.04 kWh
3611 06/09/2026 23:06:00 MB-L3-01Mainboard Lantai 3 L3-LUX-01 Illuminance / LUX 1 0.20 lux
3612 06/09/2026 23:06:00 MB-L5-01Mainboard Lantai 5 L5-LUX-06 Illuminance / LUX 6 0.10 lux
3613 06/09/2026 23:06:00 MB-L3-01Mainboard Lantai 3 L3-AI-02 Analog Input 2 3.12 V
3614 06/09/2026 23:06:00 MB-L5-01Mainboard Lantai 5 L5-AI-04 Analog Input 4 3.05 V
3615 06/09/2026 23:06:00 MB-L3-01Mainboard Lantai 3 L3-SHT-01-RH SHT20 1 Humidity 45.10 %RH
3616 06/09/2026 23:06:00 MB-L3-01Mainboard Lantai 3 L3-LUX-03 Illuminance / LUX 3 0.20 lux
3617 06/09/2026 23:06:00 PWR-L5-01Power Meter L5 PZEM 01 PZEM-L5-01-PF PZEM L5-01 Power Factor 0.38
3618 06/09/2026 23:06:00 WS-MOD-01Weather Station Module WS-TEMP Suhu Udara 20.30 °C
3619 06/09/2026 23:06:00 AC-REMOTE-01Remote AC AC-FAN AC Fan Speed 0.00 code
3620 06/09/2026 23:06:00 MB-L5-01Mainboard Lantai 5 L5-BGT-03 Black Globe Temperature 3 26.80 °C
3621 06/09/2026 23:06:00 MB-L3-01Mainboard Lantai 3 L3-SHT-03-T SHT20 3 Temperature 29.10 °C
3622 06/09/2026 23:06:00 MB-L5-01Mainboard Lantai 5 L5-LUX-01 Illuminance / LUX 1 0.00 lux
3623 06/09/2026 23:06:00 WS-MOD-01Weather Station Module WS-DIR Arah Angin 90.80 °
3624 06/09/2026 23:06:00 MB-L3-01Mainboard Lantai 3 L3-RAD-02 Radiation 2 1.00 W/m²
3625 06/09/2026 23:06:00 MB-L5-01Mainboard Lantai 5 L5-ST-01 Surface Temperature 1 24.70 °C
3626 06/09/2026 23:06:00 MB-L3-01Mainboard Lantai 3 L3-AI-05 Analog Input 5 3.12 V
3627 06/09/2026 23:06:00 MB-L5-01Mainboard Lantai 5 L5-HFT-02 Heat Flow Temperature 2 24.00 °C
3628 06/09/2026 23:06:00 MB-L3-01Mainboard Lantai 3 L3-LUX-02 Illuminance / LUX 2 0.20 lux
3629 06/09/2026 23:06:00 PWR-L5-02Power Meter L5 PZEM 02 PZEM-L5-02-POWER PZEM L5-02 Active Power 0.00 W
3630 06/09/2026 23:06:00 MB-L5-01Mainboard Lantai 5 L5-AI-02 Analog Input 2 3.05 V
3631 06/09/2026 23:06:00 PWR-L5-01Power Meter L5 PZEM 01 PZEM-L5-01-VOLT PZEM L5-01 Voltage 227.30 V
3632 06/09/2026 23:06:00 AC-REMOTE-01Remote AC AC-MODE AC Operating Mode 1.00 code
3633 06/09/2026 23:06:00 MB-L3-01Mainboard Lantai 3 L3-SHT-01-T SHT20 1 Temperature 29.00 °C
3634 06/09/2026 23:06:00 MB-L3-01Mainboard Lantai 3 L3-SHT-02-T SHT20 2 Temperature 29.10 °C
3635 06/09/2026 23:06:00 PWR-L5-02Power Meter L5 PZEM 02 PZEM-L5-02-PF PZEM L5-02 Power Factor 0.00
3636 06/09/2026 23:06:00 MB-L5-01Mainboard Lantai 5 L5-BGT-01 Black Globe Temperature 1 27.00 °C
3637 06/09/2026 23:05:00 MB-L3-01Mainboard Lantai 3 L3-SHT-02-RH SHT20 2 Humidity 44.40 %RH
3638 06/09/2026 23:05:00 MB-L5-01Mainboard Lantai 5 L5-SHT-01-T SHT20 1 Temperature 29.00 °C
3639 06/09/2026 23:05:00 MB-L3-01Mainboard Lantai 3 L3-SHT-03-RH SHT20 3 Humidity 44.90 %RH
3640 06/09/2026 23:05:00 MB-L5-01Mainboard Lantai 5 L5-LUX-03 Illuminance / LUX 3 0.20 lux
3641 06/09/2026 23:05:00 MB-L5-01Mainboard Lantai 5 L5-SHT-03-T SHT20 3 Temperature 29.20 °C
3642 06/09/2026 23:05:00 MB-L3-01Mainboard Lantai 3 L3-AI-06 Analog Input 6 3.12 V
3643 06/09/2026 23:05:00 MB-L5-01Mainboard Lantai 5 L5-AI-03 Analog Input 3 3.05 V
3644 06/09/2026 23:05:00 MB-L5-01Mainboard Lantai 5 L5-SHT-02-RH SHT20 2 Humidity 44.70 %RH
3645 06/09/2026 23:05:00 PWR-L5-02Power Meter L5 PZEM 02 PZEM-L5-02-FREQ PZEM L5-02 Frequency 50.00 Hz
3646 06/09/2026 23:05:00 MB-L3-01Mainboard Lantai 3 L3-RAD-01 Radiation 1 1.00 W/m²
3647 06/09/2026 23:05:00 PWR-L5-01Power Meter L5 PZEM 01 PZEM-L5-01-ENERGY PZEM L5-01 Energy 0.05 kWh
3648 06/09/2026 23:05:00 MB-L5-01Mainboard Lantai 5 L5-BGT-02 Black Globe Temperature 2 27.00 °C
3649 06/09/2026 23:05:00 PWR-L5-02Power Meter L5 PZEM 02 PZEM-L5-02-VOLT PZEM L5-02 Voltage 227.20 V
3650 06/09/2026 23:05:00 MB-L5-01Mainboard Lantai 5 L5-AI-06 Analog Input 6 3.05 V
3651 06/09/2026 23:05:00 AC-REMOTE-01Remote AC AC-POWER AC Power State 1.00 state
3652 06/09/2026 23:05:00 MB-L3-01Mainboard Lantai 3 L3-AI-04 Analog Input 4 3.12 V
3653 06/09/2026 23:05:00 MB-L3-01Mainboard Lantai 3 L3-LUX-05 Illuminance / LUX 5 0.30 lux
3654 06/09/2026 23:05:00 MB-L5-01Mainboard Lantai 5 L5-RAD-02 Radiation 2 1.00 W/m²
3655 06/09/2026 23:05:00 MB-L5-01Mainboard Lantai 5 L5-HFT-01 Heat Flow Temperature 1 24.70 °C
3656 06/09/2026 23:05:00 MB-L5-01Mainboard Lantai 5 L5-LUX-04 Illuminance / LUX 4 0.10 lux
3657 06/09/2026 23:05:00 WS-MOD-01Weather Station Module WS-RH Kelembapan Udara 75.30 %RH
3658 06/09/2026 23:05:00 MB-L5-01Mainboard Lantai 5 L5-RAD-01 Radiation 1 1.00 W/m²
3659 06/09/2026 23:05:00 MB-L5-01Mainboard Lantai 5 L5-AI-01 Analog Input 1 3.05 V
3660 06/09/2026 23:05:00 MB-L5-01Mainboard Lantai 5 L5-LUX-02 Illuminance / LUX 2 0.10 lux
3661 06/09/2026 23:05:00 PWR-L5-01Power Meter L5 PZEM 01 PZEM-L5-01-FREQ PZEM L5-01 Frequency 50.00 Hz
3662 06/09/2026 23:05:00 PWR-L5-02Power Meter L5 PZEM 02 PZEM-L5-02-ENERGY PZEM L5-02 Energy 0.04 kWh
3663 06/09/2026 23:05:00 MB-L3-01Mainboard Lantai 3 L3-LUX-01 Illuminance / LUX 1 0.20 lux
3664 06/09/2026 23:05:00 MB-L5-01Mainboard Lantai 5 L5-LUX-06 Illuminance / LUX 6 0.10 lux
3665 06/09/2026 23:05:00 MB-L3-01Mainboard Lantai 3 L3-AI-02 Analog Input 2 3.12 V
3666 06/09/2026 23:05:00 MB-L5-01Mainboard Lantai 5 L5-AI-04 Analog Input 4 3.05 V
3667 06/09/2026 23:05:00 MB-L3-01Mainboard Lantai 3 L3-SHT-01-RH SHT20 1 Humidity 45.00 %RH
3668 06/09/2026 23:05:00 MB-L3-01Mainboard Lantai 3 L3-LUX-03 Illuminance / LUX 3 0.20 lux
3669 06/09/2026 23:05:00 PWR-L5-01Power Meter L5 PZEM 01 PZEM-L5-01-PF PZEM L5-01 Power Factor 0.38
3670 06/09/2026 23:05:00 WS-MOD-01Weather Station Module WS-TEMP Suhu Udara 20.30 °C
3671 06/09/2026 23:05:00 AC-REMOTE-01Remote AC AC-FAN AC Fan Speed 0.00 code
3672 06/09/2026 23:05:00 MB-L5-01Mainboard Lantai 5 L5-BGT-03 Black Globe Temperature 3 26.80 °C
3673 06/09/2026 23:05:00 MB-L3-01Mainboard Lantai 3 L3-SHT-03-T SHT20 3 Temperature 29.20 °C
3674 06/09/2026 23:05:00 MB-L5-01Mainboard Lantai 5 L5-LUX-05 Illuminance / LUX 5 0.10 lux
3675 06/09/2026 23:05:00 MB-L5-01Mainboard Lantai 5 L5-LUX-01 Illuminance / LUX 1 0.00 lux
3676 06/09/2026 23:05:00 WS-MOD-01Weather Station Module WS-DIR Arah Angin 85.40 °
3677 06/09/2026 23:05:00 MB-L3-01Mainboard Lantai 3 L3-RAD-02 Radiation 2 0.00 W/m²
3678 06/09/2026 23:05:00 MB-L5-01Mainboard Lantai 5 L5-ST-01 Surface Temperature 1 24.80 °C
3679 06/09/2026 23:05:00 MB-L3-01Mainboard Lantai 3 L3-AI-05 Analog Input 5 3.12 V
3680 06/09/2026 23:05:00 MB-L5-01Mainboard Lantai 5 L5-HFT-02 Heat Flow Temperature 2 24.00 °C
3681 06/09/2026 23:05:00 MB-L3-01Mainboard Lantai 3 L3-LUX-02 Illuminance / LUX 2 0.20 lux
3682 06/09/2026 23:05:00 PWR-L5-02Power Meter L5 PZEM 02 PZEM-L5-02-POWER PZEM L5-02 Active Power 0.00 W
3683 06/09/2026 23:05:00 MB-L5-01Mainboard Lantai 5 L5-AI-02 Analog Input 2 3.05 V
3684 06/09/2026 23:05:00 PWR-L5-01Power Meter L5 PZEM 01 PZEM-L5-01-VOLT PZEM L5-01 Voltage 227.30 V
3685 06/09/2026 23:05:00 AC-REMOTE-01Remote AC AC-MODE AC Operating Mode 1.00 code
3686 06/09/2026 23:05:00 MB-L3-01Mainboard Lantai 3 L3-SHT-01-T SHT20 1 Temperature 28.90 °C
3687 06/09/2026 23:05:00 MB-L3-01Mainboard Lantai 3 L3-SHT-02-T SHT20 2 Temperature 29.20 °C
3688 06/09/2026 23:05:00 PWR-L5-02Power Meter L5 PZEM 02 PZEM-L5-02-PF PZEM L5-02 Power Factor 0.00
3689 06/09/2026 23:05:00 MB-L5-01Mainboard Lantai 5 L5-BGT-01 Black Globe Temperature 1 27.00 °C
3690 06/09/2026 23:05:00 MB-L5-01Mainboard Lantai 5 L5-AI-05 Analog Input 5 3.05 V
3691 06/09/2026 23:05:00 MB-L3-01Mainboard Lantai 3 L3-AI-03 Analog Input 3 3.12 V
3692 06/09/2026 23:05:00 WS-MOD-01Weather Station Module WS-WIND Kecepatan Angin 3.85 m/s
3693 06/09/2026 23:05:00 PWR-L5-01Power Meter L5 PZEM 01 PZEM-L5-01-CURR PZEM L5-01 Current 0.13 A
3694 06/09/2026 23:05:00 MB-L5-01Mainboard Lantai 5 L5-ST-02 Surface Temperature 2 24.30 °C
3695 06/09/2026 23:05:00 MB-L5-01Mainboard Lantai 5 L5-SHT-01-RH SHT20 1 Humidity 45.30 %RH
3696 06/09/2026 23:05:00 PWR-L5-02Power Meter L5 PZEM 02 PZEM-L5-02-CURR PZEM L5-02 Current 0.00 A
3697 06/09/2026 23:05:00 MB-L3-01Mainboard Lantai 3 L3-LUX-06 Illuminance / LUX 6 0.30 lux
3698 06/09/2026 23:05:00 WS-MOD-01Weather Station Module WS-PRES Tekanan Udara 912.00 hPa
3699 06/09/2026 23:05:00 MB-L5-01Mainboard Lantai 5 L5-SHT-02-T SHT20 2 Temperature 29.30 °C
3700 06/09/2026 23:05:00 MB-L3-01Mainboard Lantai 3 L3-LUX-04 Illuminance / LUX 4 0.10 lux
Menampilkan maksimal 100 data per halaman